Time;durP1;ratioP1;P1;durP2;ratioP2;P2;SDS_P1;SDS_P2;PMS_P1;PMS_P2;Temp;Humidity;BMP_temperature;BMP_pressure;BME280_temperature;BME280_humidity;BME280_pressure;Samples;Min_cycle;Max_cycle;Signal;HPM_P1;HPM_P2
2023/06/22 00:26:03;;;;;;;12.10;11.03;;;;;;;;;;4868140;29;20495;-78
2023/06/22 00:38:28;;;;;;;11.53;10.53;;;;;;;;;;4789785;30;20520;-78
2023/06/22 00:44:43;;;;;;;11.90;10.77;;;;;;;;;;4920885;29;20433;-78
2023/06/22 00:47:27;;;;;;;11.30;10.40;;;;;;;;;;4917517;29;20472;-77
2023/06/22 00:50:35;;;;;;;12.10;11.10;;;;;;;;;;4961229;28;20847;-78
2023/06/22 01:11:30;;;;;;;12.17;10.57;;;;;;;;;;4967997;28;20446;-78
2023/06/22 01:14:29;;;;;;;10.73;9.93;;;;;;;;;;5040221;28;20546;-79
2023/06/22 01:17:10;;;;;;;11.73;10.70;;;;;;;;;;5068328;28;20485;-76
2023/06/22 01:22:55;;;;;;;12.90;11.47;;;;;;;;;;5107351;28;20464;-79
2023/06/22 01:25:43;;;;;;;12.00;10.80;;;;;;;;;;5111748;28;20465;-78
2023/06/22 01:28:41;;;;;;;12.10;10.90;;;;;;;;;;5112576;28;21102;-76
2023/06/22 01:31:32;;;;;;;11.47;10.37;;;;;;;;;;5112981;28;20535;-77
2023/06/22 01:37:10;;;;;;;11.80;10.80;;;;;;;;;;5106436;28;20473;-78
2023/06/22 01:40:13;;;;;;;11.53;10.50;;;;;;;;;;5112623;28;20436;-77
2023/06/22 01:42:55;;;;;;;11.60;10.60;;;;;;;;;;5110363;28;20472;-78
2023/06/22 01:49:17;;;;;;;13.40;10.63;;;;;;;;;;5105276;28;20448;-78
2023/06/22 01:52:06;;;;;;;11.53;10.60;;;;;;;;;;5039387;28;20593;-78
2023/06/22 02:03:59;;;;;;;11.70;10.60;;;;;;;;;;5032377;28;20492;-78
2023/06/22 02:06:38;;;;;;;12.20;11.03;;;;;;;;;;5040903;28;20447;-78
2023/06/22 02:21:49;;;;;;;12.53;11.37;;;;;;;;;;5016584;28;20463;-79
2023/06/22 02:24:37;;;;;;;11.60;10.60;;;;;;;;;;5017722;28;20443;-78
2023/06/22 02:27:08;;;;;;;12.03;11.03;;;;;;;;;;5012380;28;20448;-79
2023/06/22 02:30:03;;;;;;;12.23;11.10;;;;;;;;;;5019995;28;20449;-78
2023/06/22 02:33:00;;;;;;;12.10;11.20;;;;;;;;;;5082189;28;20470;-78
2023/06/22 02:35:37;;;;;;;13.47;12.07;;;;;;;;;;5093608;28;20484;-78
2023/06/22 02:41:19;;;;;;;11.97;10.87;;;;;;;;;;5080400;28;20458;-77
2023/06/22 02:44:24;;;;;;;12.40;11.37;;;;;;;;;;5100525;28;20448;-79
2023/06/22 02:53:38;;;;;;;12.20;11.20;;;;;;;;;;5092933;28;20444;-79
2023/06/22 02:56:43;;;;;;;12.70;11.40;;;;;;;;;;5093960;28;20480;-79
2023/06/22 02:59:44;;;;;;;12.33;10.90;;;;;;;;;;5021273;28;20549;-78
2023/06/22 03:02:28;;;;;;;12.90;11.60;;;;;;;;;;4958480;28;20469;-79
2023/06/22 03:07:57;;;;;;;13.27;12.07;;;;;;;;;;5020121;28;20432;-78
2023/06/22 03:10:37;;;;;;;12.57;11.27;;;;;;;;;;5102219;28;20461;-78
2023/06/22 03:38:36;;;;;;;12.00;10.93;;;;;;;;;;5092416;27;2079335;-78
2023/06/22 03:41:35;;;;;;;12.53;11.33;;;;;;;;;;5135231;28;20446;-78
2023/06/22 03:47:40;;;;;;;17.47;15.40;;;;;;;;;;5086387;28;20452;-78
2023/06/22 03:50:12;;;;;;;12.93;11.37;;;;;;;;;;5114169;28;20499;-79
2023/06/22 03:52:59;;;;;;;11.40;10.40;;;;;;;;;;5115167;28;20490;-79
2023/06/22 03:56:19;;;;;;;;;;;;;;;;;;;;;
2023/06/22 04:05:24;;;;;;;;;;;;;;;;;;;;;
2023/06/22 04:11:08;;;;;;;11.50;10.50;;;;;;;;;;5107892;28;20443;-78
2023/06/22 04:13:42;;;;;;;13.17;11.70;;;;;;;;;;5115453;28;20476;-79
2023/06/22 04:19:16;;;;;;;12.47;11.23;;;;;;;;;;5111337;28;20447;-78
2023/06/22 04:21:48;;;;;;;12.60;11.50;;;;;;;;;;5115703;28;20447;-76
2023/06/22 04:24:15;;;;;;;12.67;11.47;;;;;;;;;;5110735;28;20439;-74
2023/06/22 04:26:45;;;;;;;13.40;12.00;;;;;;;;;;5112469;28;20448;-74
2023/06/22 04:29:18;;;;;;;13.57;12.20;;;;;;;;;;5114087;28;20873;-75
2023/06/22 04:31:53;;;;;;;12.93;10.70;;;;;;;;;;5116130;28;20439;-74
2023/06/22 04:34:26;;;;;;;14.87;10.83;;;;;;;;;;5118681;28;20438;-76
2023/06/22 04:37:04;;;;;;;14.17;12.87;;;;;;;;;;5121544;28;20455;-74
2023/06/22 04:39:34;;;;;;;12.00;11.00;;;;;;;;;;5121827;28;20459;-74
2023/06/22 04:45:01;;;;;;;13.20;11.93;;;;;;;;;;5105544;28;20420;-75
2023/06/22 04:47:30;;;;;;;13.00;11.57;;;;;;;;;;5112577;28;20454;-75
2023/06/22 04:49:58;;;;;;;12.73;11.47;;;;;;;;;;5097193;28;20450;-74
2023/06/22 04:52:27;;;;;;;12.70;11.40;;;;;;;;;;5096492;28;20458;-75
2023/06/22 04:54:59;;;;;;;11.70;10.70;;;;;;;;;;5097877;28;20480;-76
2023/06/22 04:57:31;;;;;;;15.00;11.87;;;;;;;;;;5099276;28;20480;-75
2023/06/22 05:00:16;;;;;;;12.77;11.60;;;;;;;;;;5098238;28;20467;-75
2023/06/22 05:02:45;;;;;;;12.23;11.03;;;;;;;;;;5097982;28;20479;-80
2023/06/22 05:05:14;;;;;;;11.20;10.10;;;;;;;;;;5099943;28;20452;-79
2023/06/22 05:07:50;;;;;;;12.23;11.07;;;;;;;;;;5103909;28;20452;-80
2023/06/22 05:13:14;;;;;;;10.30;9.47;;;;;;;;;;5090584;28;20495;-79
2023/06/22 05:15:44;;;;;;;11.93;10.80;;;;;;;;;;5107438;28;20873;-79
2023/06/22 05:18:27;;;;;;;13.07;11.80;;;;;;;;;;5105754;28;20475;-81
2023/06/22 05:20:55;;;;;;;11.47;10.43;;;;;;;;;;5104270;28;20520;-78
2023/06/22 05:23:25;;;;;;;12.27;11.20;;;;;;;;;;5105169;28;20468;-77
2023/06/22 05:25:54;;;;;;;12.10;10.90;;;;;;;;;;5105111;28;20444;-78
2023/06/22 05:28:22;;;;;;;15.53;11.57;;;;;;;;;;5103024;28;20799;-78
2023/06/22 05:30:53;;;;;;;11.67;10.57;;;;;;;;;;5103845;28;20444;-77
2023/06/22 05:33:21;;;;;;;11.90;10.70;;;;;;;;;;5105228;28;20455;-78
2023/06/22 05:35:48;;;;;;;12.03;11.03;;;;;;;;;;5106761;28;20478;-78
2023/06/22 05:38:15;;;;;;;10.87;9.83;;;;;;;;;;5098591;28;21086;-79
2023/06/22 05:40:44;;;;;;;11.83;10.53;;;;;;;;;;5100079;28;20456;-78
2023/06/22 05:43:12;;;;;;;11.00;9.90;;;;;;;;;;5099082;28;20528;-78
2023/06/22 05:45:41;;;;;;;11.47;10.20;;;;;;;;;;5103333;28;20547;-77
2023/06/22 05:48:09;;;;;;;10.77;9.77;;;;;;;;;;5110918;28;20963;-79
2023/06/22 05:50:36;;;;;;;10.90;9.90;;;;;;;;;;5109227;28;20468;-78
2023/06/22 05:53:04;;;;;;;10.10;9.27;;;;;;;;;;5107999;28;20464;-78
2023/06/22 05:55:32;;;;;;;10.00;9.20;;;;;;;;;;5105846;28;20444;-77
2023/06/22 05:58:03;;;;;;;11.00;10.00;;;;;;;;;;5104836;28;20464;-77
2023/06/22 06:00:30;;;;;;;11.27;10.00;;;;;;;;;;5102682;28;20449;-78
2023/06/22 06:03:03;;;;;;;10.60;9.50;;;;;;;;;;5103460;28;20571;-77
2023/06/22 06:05:34;;;;;;;10.30;9.50;;;;;;;;;;5103291;28;20955;-78
2023/06/22 06:08:02;;;;;;;10.43;9.40;;;;;;;;;;5102311;28;20421;-79
2023/06/22 06:10:30;;;;;;;10.17;9.03;;;;;;;;;;5099131;28;20444;-77
2023/06/22 06:12:58;;;;;;;10.83;9.60;;;;;;;;;;5099048;28;20478;-79
2023/06/22 06:15:28;;;;;;;10.70;9.47;;;;;;;;;;5099374;28;20452;-78
2023/06/22 06:17:56;;;;;;;9.50;8.70;;;;;;;;;;5099424;28;20673;-77
2023/06/22 06:20:24;;;;;;;10.30;9.40;;;;;;;;;;5100502;28;20503;-80
2023/06/22 06:22:52;;;;;;;9.23;8.40;;;;;;;;;;5100229;28;20492;-79
2023/06/22 06:25:24;;;;;;;10.23;8.30;;;;;;;;;;5099747;28;20439;-78
2023/06/22 06:27:54;;;;;;;9.33;8.40;;;;;;;;;;5097413;28;20434;-78
2023/06/22 06:30:23;;;;;;;8.67;7.83;;;;;;;;;;5096807;28;20835;-79
2023/06/22 06:32:52;;;;;;;9.30;7.83;;;;;;;;;;5095078;28;20621;-78
2023/06/22 06:35:21;;;;;;;10.33;9.37;;;;;;;;;;5095518;28;20456;-77
2023/06/22 06:37:52;;;;;;;8.40;7.70;;;;;;;;;;5094384;28;20580;-78
2023/06/22 06:40:20;;;;;;;10.70;9.70;;;;;;;;;;5094999;28;20457;-77
2023/06/22 06:42:48;;;;;;;9.00;8.10;;;;;;;;;;5096085;28;20468;-78
2023/06/22 06:45:17;;;;;;;9.73;8.73;;;;;;;;;;5096619;28;20448;-77
2023/06/22 06:47:45;;;;;;;10.97;9.97;;;;;;;;;;5096284;28;21009;-78
2023/06/22 06:50:15;;;;;;;9.80;8.90;;;;;;;;;;5098929;28;20476;-78
2023/06/22 06:52:42;;;;;;;8.77;7.90;;;;;;;;;;5115585;28;20469;-78
2023/06/22 06:55:11;;;;;;;10.27;8.10;;;;;;;;;;5116102;28;20946;-76
2023/06/22 06:57:39;;;;;;;9.27;8.37;;;;;;;;;;5115048;28;20484;-78
2023/06/22 07:00:10;;;;;;;10.07;9.00;;;;;;;;;;5116003;28;20476;-77
2023/06/22 07:02:38;;;;;;;9.43;8.33;;;;;;;;;;5115481;28;20468;-76
2023/06/22 07:05:06;;;;;;;9.93;8.90;;;;;;;;;;5115485;28;20450;-77
2023/06/22 07:07:35;;;;;;;9.30;8.40;;;;;;;;;;5116875;28;20540;-77
2023/06/22 07:10:03;;;;;;;9.47;8.17;;;;;;;;;;5117983;28;20443;-77
2023/06/22 07:12:31;;;;;;;9.27;8.47;;;;;;;;;;5117555;28;20473;-77
2023/06/22 07:15:05;;;;;;;8.43;7.70;;;;;;;;;;5118958;28;20615;-78
2023/06/22 07:17:35;;;;;;;8.70;7.90;;;;;;;;;;5118703;28;20885;-77
2023/06/22 07:20:07;;;;;;;8.27;7.27;;;;;;;;;;5116053;28;20439;-78
2023/06/22 07:22:36;;;;;;;7.93;7.23;;;;;;;;;;5097137;28;20467;-78
2023/06/22 07:25:08;;;;;;;9.40;8.07;;;;;;;;;;5096229;28;20466;-77
2023/06/22 07:27:37;;;;;;;8.70;8.00;;;;;;;;;;5101348;28;20447;-78
2023/06/22 07:30:05;;;;;;;8.60;6.67;;;;;;;;;;5103257;28;20458;-78
2023/06/22 07:32:32;;;;;;;7.13;6.43;;;;;;;;;;5106215;28;20466;-77
2023/06/22 07:35:00;;;;;;;8.50;7.63;;;;;;;;;;5101629;28;20466;-78
2023/06/22 07:37:28;;;;;;;9.63;6.90;;;;;;;;;;5100994;28;20939;-79
2023/06/22 07:39:58;;;;;;;7.77;7.00;;;;;;;;;;5101793;28;20451;-78
2023/06/22 07:42:26;;;;;;;8.20;7.30;;;;;;;;;;5100723;28;20474;-77
2023/06/22 07:44:53;;;;;;;7.63;6.77;;;;;;;;;;5100085;28;20485;-79
2023/06/22 07:47:24;;;;;;;7.83;7.13;;;;;;;;;;5104765;28;20515;-78
2023/06/22 07:49:54;;;;;;;7.67;6.90;;;;;;;;;;5108004;28;20474;-79
2023/06/22 07:52:22;;;;;;;7.40;6.70;;;;;;;;;;5110655;28;20479;-79
2023/06/22 07:54:49;;;;;;;8.30;7.50;;;;;;;;;;5110458;28;20521;-78
2023/06/22 07:57:18;;;;;;;7.77;6.90;;;;;;;;;;5102340;28;20484;-78
2023/06/22 07:59:46;;;;;;;9.17;7.07;;;;;;;;;;5098330;28;20533;-77
2023/06/22 08:02:13;;;;;;;7.57;6.50;;;;;;;;;;5098387;28;20459;-78
2023/06/22 08:04:41;;;;;;;6.53;6.03;;;;;;;;;;5097746;28;20433;-77
2023/06/22 08:07:10;;;;;;;7.50;6.60;;;;;;;;;;5098988;28;20466;-79
2023/06/22 08:09:40;;;;;;;7.53;6.80;;;;;;;;;;5099118;28;21214;-78
2023/06/22 08:12:18;;;;;;;8.00;7.00;;;;;;;;;;5101410;28;20475;-79
2023/06/22 08:14:47;;;;;;;9.60;7.27;;;;;;;;;;5097138;28;20557;-78
2023/06/22 08:17:15;;;;;;;7.87;7.10;;;;;;;;;;5097396;28;20448;-79
2023/06/22 08:19:42;;;;;;;11.63;7.00;;;;;;;;;;5097791;28;20494;-78
2023/06/22 08:22:10;;;;;;;8.67;6.57;;;;;;;;;;5096355;28;20464;-77
2023/06/22 08:24:37;;;;;;;8.03;6.57;;;;;;;;;;5098179;28;20428;-77
2023/06/22 08:27:05;;;;;;;7.70;7.00;;;;;;;;;;5104296;28;20878;-78
2023/06/22 08:29:32;;;;;;;7.70;6.67;;;;;;;;;;5101907;28;20435;-78
2023/06/22 08:32:01;;;;;;;8.60;6.13;;;;;;;;;;5100199;28;20483;-79
2023/06/22 08:34:29;;;;;;;6.87;6.10;;;;;;;;;;5099471;28;20448;-79
2023/06/22 08:36:56;;;;;;;7.53;6.80;;;;;;;;;;5100608;28;20822;-78
2023/06/22 08:39:24;;;;;;;7.43;6.63;;;;;;;;;;5098172;28;20500;-78
2023/06/22 08:41:51;;;;;;;6.83;6.13;;;;;;;;;;5097849;28;20516;-79
2023/06/22 08:44:20;;;;;;;8.50;7.60;;;;;;;;;;5099134;28;20799;-78
2023/06/22 08:46:47;;;;;;;7.40;6.07;;;;;;;;;;5102611;28;20467;-78
2023/06/22 08:49:16;;;;;;;6.87;6.17;;;;;;;;;;5101557;28;20463;-78
2023/06/22 08:51:44;;;;;;;9.10;6.90;;;;;;;;;;5099866;28;20459;-78
2023/06/22 08:54:11;;;;;;;10.10;6.40;;;;;;;;;;5097225;28;20534;-76
2023/06/22 08:56:39;;;;;;;8.30;6.77;;;;;;;;;;5097706;28;20439;-78
2023/06/22 08:59:07;;;;;;;9.43;6.90;;;;;;;;;;5097117;28;20489;-78
2023/06/22 09:01:35;;;;;;;7.50;6.80;;;;;;;;;;5097241;28;20517;-77
2023/06/22 09:04:03;;;;;;;9.03;6.70;;;;;;;;;;5098221;28;20520;-77
2023/06/22 09:06:33;;;;;;;11.60;6.87;;;;;;;;;;5103037;28;20481;-78
2023/06/22 09:09:00;;;;;;;7.50;6.30;;;;;;;;;;5103241;28;20474;-77
2023/06/22 09:11:27;;;;;;;8.03;6.17;;;;;;;;;;5098653;28;20464;-79
2023/06/22 09:13:55;;;;;;;8.47;6.77;;;;;;;;;;5103361;28;20475;-78
2023/06/22 09:16:22;;;;;;;9.70;6.80;;;;;;;;;;5108242;28;20479;-77
2023/06/22 09:18:50;;;;;;;8.50;6.73;;;;;;;;;;5100329;28;20483;-77
2023/06/22 09:21:18;;;;;;;9.10;7.33;;;;;;;;;;5097085;28;20491;-78
2023/06/22 09:23:50;;;;;;;12.47;6.83;;;;;;;;;;5095704;28;20540;-76
2023/06/22 09:26:18;;;;;;;8.23;7.20;;;;;;;;;;5095277;28;20456;-77
2023/06/22 09:28:45;;;;;;;8.80;6.17;;;;;;;;;;5094857;28;20878;-77
2023/06/22 09:31:13;;;;;;;8.40;6.70;;;;;;;;;;5094520;28;20791;-78
2023/06/22 09:33:42;;;;;;;9.93;6.77;;;;;;;;;;5094615;28;20525;-77
2023/06/22 09:36:09;;;;;;;10.40;6.63;;;;;;;;;;5094732;28;20428;-78
2023/06/22 09:38:37;;;;;;;9.20;6.40;;;;;;;;;;5095336;28;20511;-77
2023/06/22 09:41:06;;;;;;;11.37;7.03;;;;;;;;;;5095315;28;20547;-78
2023/06/22 09:43:36;;;;;;;10.00;6.60;;;;;;;;;;5094894;28;20475;-77
2023/06/22 09:46:03;;;;;;;7.60;6.80;;;;;;;;;;5095195;28;20436;-78
2023/06/22 09:48:31;;;;;;;10.67;6.87;;;;;;;;;;5095653;28;20506;-77
2023/06/22 09:50:58;;;;;;;7.20;6.00;;;;;;;;;;5097223;28;20432;-77
2023/06/22 09:53:25;;;;;;;11.63;7.03;;;;;;;;;;5117327;28;20440;-78
2023/06/22 09:55:53;;;;;;;10.23;6.27;;;;;;;;;;5121615;28;20448;-78
2023/06/22 09:58:22;;;;;;;9.93;6.40;;;;;;;;;;5119794;28;20462;-77
2023/06/22 10:00:49;;;;;;;9.47;6.17;;;;;;;;;;5118223;28;20435;-78
2023/06/22 10:03:17;;;;;;;12.90;6.97;;;;;;;;;;5116644;28;20503;-78
2023/06/22 10:05:44;;;;;;;7.60;5.73;;;;;;;;;;5117137;28;20438;-79
2023/06/22 10:08:12;;;;;;;7.13;6.43;;;;;;;;;;5119432;28;20428;-77
2023/06/22 10:10:39;;;;;;;9.63;6.83;;;;;;;;;;5125034;28;20461;-78
2023/06/22 10:13:10;;;;;;;7.53;6.27;;;;;;;;;;5123661;28;20474;-77
2023/06/22 10:15:39;;;;;;;6.63;5.93;;;;;;;;;;5106046;28;20474;-78
2023/06/22 10:18:07;;;;;;;7.50;6.00;;;;;;;;;;5100752;28;20444;-77
2023/06/22 10:20:34;;;;;;;7.63;6.47;;;;;;;;;;5098614;28;20490;-78
2023/06/22 10:23:02;;;;;;;8.43;6.40;;;;;;;;;;5098519;28;20468;-76
2023/06/22 10:25:30;;;;;;;9.60;6.50;;;;;;;;;;5098047;28;20431;-77
2023/06/22 10:27:58;;;;;;;8.30;6.83;;;;;;;;;;5097329;28;20531;-78
2023/06/22 10:30:26;;;;;;;13.80;7.47;;;;;;;;;;5095590;28;20443;-79
2023/06/22 10:33:03;;;;;;;8.20;7.40;;;;;;;;;;5095141;28;20551;-78
2023/06/22 10:35:31;;;;;;;8.00;7.10;;;;;;;;;;5095384;28;20764;-78
2023/06/22 10:37:59;;;;;;;10.90;7.10;;;;;;;;;;5095954;28;20494;-80
2023/06/22 10:40:26;;;;;;;8.13;7.27;;;;;;;;;;5097123;28;20482;-78
2023/06/22 10:42:54;;;;;;;10.00;7.07;;;;;;;;;;5096680;28;20493;-77
2023/06/22 10:45:21;;;;;;;8.73;7.43;;;;;;;;;;5096212;28;20475;-77
2023/06/22 10:47:49;;;;;;;9.80;7.13;;;;;;;;;;5094737;28;20460;-80
2023/06/22 10:50:17;;;;;;;8.60;7.47;;;;;;;;;;5095522;28;20444;-77
2023/06/22 10:52:45;;;;;;;8.93;6.80;;;;;;;;;;5096843;28;20467;-77
2023/06/22 10:55:12;;;;;;;8.77;6.27;;;;;;;;;;5096727;28;20455;-79
2023/06/22 10:57:43;;;;;;;10.30;7.00;;;;;;;;;;5095001;28;20460;-79
2023/06/22 11:00:12;;;;;;;9.40;6.60;;;;;;;;;;5097354;28;20472;-78
2023/06/22 11:02:39;;;;;;;7.57;6.63;;;;;;;;;;5094408;28;20460;-77
2023/06/22 11:05:07;;;;;;;9.00;6.50;;;;;;;;;;5095538;28;20519;-80
2023/06/22 11:07:36;;;;;;;8.93;6.80;;;;;;;;;;5095544;28;20481;-79
2023/06/22 11:10:03;;;;;;;9.77;8.13;;;;;;;;;;5096221;28;20436;-78
2023/06/22 11:12:31;;;;;;;7.80;6.73;;;;;;;;;;5095229;28;20468;-78
2023/06/22 11:14:58;;;;;;;10.00;6.47;;;;;;;;;;5095498;28;20513;-78
2023/06/22 11:17:26;;;;;;;7.90;6.70;;;;;;;;;;5095128;28;20955;-77
2023/06/22 11:19:53;;;;;;;8.93;7.20;;;;;;;;;;5094893;28;20468;-77
2023/06/22 11:22:21;;;;;;;7.83;5.80;;;;;;;;;;5095407;28;20509;-78
2023/06/22 11:24:50;;;;;;;6.83;5.40;;;;;;;;;;5097961;28;20509;-77
2023/06/22 11:27:17;;;;;;;8.60;6.47;;;;;;;;;;5098445;28;20539;-78
2023/06/22 11:29:47;;;;;;;8.07;6.60;;;;;;;;;;5099252;28;20444;-77
2023/06/22 11:32:15;;;;;;;11.10;7.20;;;;;;;;;;5100362;28;20476;-79
2023/06/22 11:34:42;;;;;;;6.67;5.80;;;;;;;;;;5102244;28;20455;-77
2023/06/22 11:37:10;;;;;;;8.23;6.07;;;;;;;;;;5102935;28;20436;-76
2023/06/22 11:39:38;;;;;;;10.23;7.13;;;;;;;;;;5102977;28;20483;-79
2023/06/22 11:42:07;;;;;;;7.57;6.33;;;;;;;;;;5105160;28;20448;-79
2023/06/22 11:44:37;;;;;;;7.10;6.13;;;;;;;;;;5103715;28;20474;-78
2023/06/22 11:47:04;;;;;;;12.93;7.40;;;;;;;;;;5103472;28;20432;-78
2023/06/22 11:49:32;;;;;;;9.33;6.07;;;;;;;;;;5108493;28;20452;-78
2023/06/22 11:51:59;;;;;;;9.27;6.43;;;;;;;;;;5109828;28;20527;-79
2023/06/22 11:54:35;;;;;;;8.73;6.10;;;;;;;;;;5110900;28;20470;-79
2023/06/22 11:57:02;;;;;;;7.03;6.10;;;;;;;;;;5109840;28;20443;-78
2023/06/22 12:00:15;;;;;;;8.07;6.70;;;;;;;;;;5110151;28;20486;-79
2023/06/22 12:03:18;;;;;;;10.20;6.80;;;;;;;;;;5101759;28;20488;-80
2023/06/22 12:06:04;;;;;;;10.00;6.60;;;;;;;;;;5107238;28;20448;-78
2023/06/22 12:08:31;;;;;;;10.53;7.30;;;;;;;;;;5105600;28;20443;-79
2023/06/22 12:10:59;;;;;;;9.70;6.83;;;;;;;;;;5104440;28;20444;-80
2023/06/22 12:13:26;;;;;;;9.83;6.40;;;;;;;;;;5112482;28;20489;-79
2023/06/22 12:16:05;;;;;;;7.57;6.30;;;;;;;;;;5109302;28;20485;-78
2023/06/22 12:18:36;;;;;;;15.90;7.20;;;;;;;;;;5112152;28;20478;-80
2023/06/22 12:21:05;;;;;;;9.17;7.23;;;;;;;;;;5109194;28;20475;-79
2023/06/22 12:23:33;;;;;;;9.50;6.70;;;;;;;;;;5101440;28;20472;-79
2023/06/22 12:26:01;;;;;;;9.83;6.77;;;;;;;;;;5103063;28;20524;-79
2023/06/22 12:28:29;;;;;;;7.63;6.60;;;;;;;;;;5100450;28;20451;-80
2023/06/22 12:30:56;;;;;;;9.70;7.03;;;;;;;;;;5102911;28;20717;-81
2023/06/22 12:33:24;;;;;;;13.10;7.43;;;;;;;;;;5099842;28;20475;-79
2023/06/22 12:35:52;;;;;;;11.40;7.30;;;;;;;;;;5104478;28;20440;-78
2023/06/22 12:38:21;;;;;;;9.50;7.13;;;;;;;;;;5102820;28;21173;-79
2023/06/22 12:40:49;;;;;;;10.03;7.47;;;;;;;;;;5102061;28;20566;-80
2023/06/22 12:43:17;;;;;;;13.77;8.23;;;;;;;;;;5100544;28;21021;-80
2023/06/22 12:45:48;;;;;;;11.80;7.77;;;;;;;;;;5100855;28;20500;-80
2023/06/22 12:48:16;;;;;;;10.43;7.07;;;;;;;;;;5098650;28;20793;-79
2023/06/22 12:50:44;;;;;;;9.80;7.10;;;;;;;;;;5098287;28;20440;-81
2023/06/22 12:53:35;;;;;;;9.67;7.30;;;;;;;;;;5097828;28;20819;-80
2023/06/22 12:56:21;;;;;;;8.00;6.90;;;;;;;;;;5035285;28;20466;-80
2023/06/22 12:58:50;;;;;;;10.73;7.10;;;;;;;;;;4955417;28;20473;-80
2023/06/22 13:01:18;;;;;;;12.83;7.50;;;;;;;;;;5071234;28;21022;-80
2023/06/22 13:03:46;;;;;;;13.20;7.90;;;;;;;;;;5099554;28;20456;-79
2023/06/22 13:06:14;;;;;;;8.87;6.90;;;;;;;;;;5098769;28;20440;-80
2023/06/22 13:08:41;;;;;;;11.23;7.27;;;;;;;;;;5098295;28;20481;-80
2023/06/22 13:11:09;;;;;;;10.03;8.00;;;;;;;;;;5098800;28;20794;-78
2023/06/22 13:13:37;;;;;;;11.00;7.83;;;;;;;;;;5099518;28;20494;-79
2023/06/22 13:16:06;;;;;;;11.40;7.50;;;;;;;;;;5107276;28;21062;-79
2023/06/22 13:18:41;;;;;;;10.70;6.73;;;;;;;;;;5101155;28;20458;-79
2023/06/22 13:21:29;;;;;;;10.90;6.30;;;;;;;;;;5104091;28;20471;-80
2023/06/22 13:23:59;;;;;;;10.30;6.90;;;;;;;;;;5100721;28;20991;-78
2023/06/22 13:26:30;;;;;;;11.43;7.00;;;;;;;;;;5104099;28;20462;-79
2023/06/22 13:28:59;;;;;;;9.13;7.10;;;;;;;;;;5099709;28;20444;-79
2023/06/22 13:31:31;;;;;;;16.40;7.30;;;;;;;;;;5100459;28;21000;-79
2023/06/22 13:33:59;;;;;;;11.03;6.93;;;;;;;;;;5099843;28;20949;-78
2023/06/22 13:36:30;;;;;;;10.77;7.23;;;;;;;;;;5099106;28;20479;-78
2023/06/22 13:38:58;;;;;;;10.40;7.70;;;;;;;;;;5096448;28;20467;-78
2023/06/22 13:41:30;;;;;;;9.23;7.70;;;;;;;;;;5103333;28;20468;-78
2023/06/22 13:43:58;;;;;;;10.47;8.40;;;;;;;;;;5096613;28;20504;-78
2023/06/22 13:46:27;;;;;;;11.63;7.30;;;;;;;;;;5098320;28;20468;-78
2023/06/22 13:48:59;;;;;;;9.77;7.17;;;;;;;;;;5096970;28;20837;-78
2023/06/22 13:51:28;;;;;;;8.07;7.23;;;;;;;;;;5097751;28;20853;-77
2023/06/22 13:53:58;;;;;;;8.90;7.60;;;;;;;;;;5098354;28;20493;-77
2023/06/22 13:56:26;;;;;;;12.03;7.30;;;;;;;;;;5100197;28;20440;-77
2023/06/22 13:58:53;;;;;;;13.90;7.40;;;;;;;;;;5100060;28;20462;-78
2023/06/22 14:01:24;;;;;;;7.03;6.20;;;;;;;;;;5102530;28;20476;-79
2023/06/22 14:03:53;;;;;;;9.70;7.60;;;;;;;;;;5099357;28;20521;-78
2023/06/22 14:06:26;;;;;;;9.50;7.50;;;;;;;;;;5101008;28;20455;-78
2023/06/22 14:09:00;;;;;;;13.00;6.90;;;;;;;;;;5099165;28;20462;-80
2023/06/22 14:11:30;;;;;;;9.43;7.13;;;;;;;;;;5098190;28;20920;-78
2023/06/22 14:13:58;;;;;;;8.27;6.50;;;;;;;;;;5097427;28;20468;-77
2023/06/22 14:16:35;;;;;;;8.43;6.70;;;;;;;;;;5098579;28;20448;-78
2023/06/22 14:19:03;;;;;;;8.93;6.30;;;;;;;;;;5096743;28;20538;-78
2023/06/22 14:21:33;;;;;;;8.27;6.10;;;;;;;;;;5093948;28;20464;-77
2023/06/22 14:24:00;;;;;;;9.17;7.40;;;;;;;;;;5095104;28;20634;-78
2023/06/22 14:26:28;;;;;;;9.47;6.40;;;;;;;;;;5093762;28;20535;-78
2023/06/22 14:28:56;;;;;;;10.40;7.50;;;;;;;;;;5093958;28;20927;-78
2023/06/22 14:31:25;;;;;;;8.93;6.20;;;;;;;;;;5094228;28;20452;-77
2023/06/22 14:33:56;;;;;;;13.00;6.70;;;;;;;;;;5094100;28;20472;-79
2023/06/22 14:36:24;;;;;;;10.10;6.80;;;;;;;;;;5094445;28;20466;-78
2023/06/22 14:39:09;;;;;;;9.57;6.57;;;;;;;;;;5094452;28;20559;-78
2023/06/22 14:41:36;;;;;;;10.90;6.07;;;;;;;;;;5093638;28;20532;-77
2023/06/22 14:44:05;;;;;;;8.37;5.63;;;;;;;;;;5093220;28;20455;-79
2023/06/22 14:46:33;;;;;;;10.80;5.90;;;;;;;;;;5094295;28;20513;-78
2023/06/22 14:49:01;;;;;;;9.80;5.63;;;;;;;;;;5093817;28;20542;-78
2023/06/22 14:51:29;;;;;;;10.60;6.27;;;;;;;;;;5093130;28;20429;-79
2023/06/22 14:54:01;;;;;;;11.23;5.90;;;;;;;;;;5093440;28;20479;-78
2023/06/22 14:56:29;;;;;;;9.60;5.80;;;;;;;;;;5094191;28;20448;-78
2023/06/22 14:58:59;;;;;;;7.57;5.03;;;;;;;;;;5092749;28;20472;-79
2023/06/22 15:01:33;;;;;;;9.73;5.50;;;;;;;;;;5094420;28;20468;-78
2023/06/22 15:04:02;;;;;;;12.23;5.80;;;;;;;;;;5091280;28;20462;-78
2023/06/22 15:06:30;;;;;;;9.63;4.20;;;;;;;;;;5094371;28;20467;-79
2023/06/22 15:09:01;;;;;;;6.83;4.10;;;;;;;;;;5092770;28;20468;-79
2023/06/22 15:11:42;;;;;;;5.43;3.33;;;;;;;;;;5095409;28;20412;-79
2023/06/22 15:14:09;;;;;;;6.00;3.90;;;;;;;;;;5097526;28;20469;-78
2023/06/22 15:16:37;;;;;;;10.60;3.97;;;;;;;;;;5096778;28;20468;-78
2023/06/22 15:19:05;;;;;;;12.17;3.90;;;;;;;;;;5094603;28;20436;-79
2023/06/22 15:21:33;;;;;;;7.13;3.83;;;;;;;;;;5095168;28;20482;-79
2023/06/22 15:24:03;;;;;;;9.27;4.00;;;;;;;;;;5093292;28;20443;-79
2023/06/22 15:26:34;;;;;;;7.93;3.47;;;;;;;;;;5094919;28;20793;-78
2023/06/22 15:29:02;;;;;;;6.70;4.50;;;;;;;;;;5094205;28;20521;-78
2023/06/22 15:31:31;;;;;;;7.20;3.60;;;;;;;;;;5095534;28;20452;-78
2023/06/22 15:34:13;;;;;;;7.80;4.50;;;;;;;;;;5095085;28;21307;-78
2023/06/22 15:36:41;;;;;;;7.93;4.27;;;;;;;;;;5095452;28;20452;-79
2023/06/22 15:39:10;;;;;;;6.53;3.73;;;;;;;;;;5095290;28;20841;-79
2023/06/22 15:41:42;;;;;;;8.80;3.50;;;;;;;;;;5096030;28;20479;-78
2023/06/22 15:44:10;;;;;;;10.10;3.90;;;;;;;;;;5094894;28;20452;-79
2023/06/22 15:46:38;;;;;;;6.97;3.47;;;;;;;;;;5094528;28;20448;-78
2023/06/22 15:49:06;;;;;;;8.53;4.10;;;;;;;;;;5100607;28;20452;-79
2023/06/22 15:51:34;;;;;;;7.40;3.60;;;;;;;;;;5103734;28;20451;-79
2023/06/22 15:54:02;;;;;;;7.43;3.60;;;;;;;;;;5101978;28;20864;-80
2023/06/22 15:56:31;;;;;;;8.07;3.83;;;;;;;;;;5101788;28;20451;-81
2023/06/22 15:59:02;;;;;;;10.20;4.03;;;;;;;;;;5101167;28;20452;-80
2023/06/22 16:01:29;;;;;;;7.63;3.70;;;;;;;;;;5100608;28;20480;-82
2023/06/22 16:03:57;;;;;;;8.83;4.10;;;;;;;;;;5101762;28;20547;-79
2023/06/22 16:06:25;;;;;;;8.03;4.20;;;;;;;;;;5102388;28;20982;-79
2023/06/22 16:08:53;;;;;;;8.23;4.10;;;;;;;;;;5103768;28;20978;-79
2023/06/22 16:11:21;;;;;;;11.70;4.60;;;;;;;;;;5101655;28;20456;-78
2023/06/22 16:13:50;;;;;;;7.93;3.93;;;;;;;;;;5101653;28;20460;-78
2023/06/22 16:16:18;;;;;;;6.30;4.20;;;;;;;;;;5102792;28;20452;-78
2023/06/22 16:18:46;;;;;;;7.73;4.10;;;;;;;;;;5102523;28;20936;-79
2023/06/22 16:21:14;;;;;;;6.80;3.70;;;;;;;;;;5100990;28;20464;-80
2023/06/22 16:23:41;;;;;;;9.50;4.03;;;;;;;;;;5101236;28;20474;-77
2023/06/22 16:26:09;;;;;;;11.53;4.20;;;;;;;;;;5103086;28;20977;-79
2023/06/22 16:28:36;;;;;;;5.97;3.57;;;;;;;;;;5107767;28;20462;-78
2023/06/22 16:31:05;;;;;;;7.17;4.17;;;;;;;;;;5108756;28;20475;-78
2023/06/22 16:33:34;;;;;;;5.63;3.70;;;;;;;;;;5104976;28;20464;-77
2023/06/22 16:39:23;;;;;;;7.27;4.63;;;;;;;;;;4974227;28;20767;-76
2023/06/22 16:44:51;;;;;;;7.93;3.67;;;;;;;;;;5030897;28;20518;-78
2023/06/22 16:47:22;;;;;;;7.47;3.30;;;;;;;;;;5099330;28;20844;-76
2023/06/22 16:49:51;;;;;;;7.70;3.57;;;;;;;;;;5102062;28;20438;-77
2023/06/22 16:52:19;;;;;;;9.77;4.27;;;;;;;;;;5103334;28;20452;-76
2023/06/22 16:54:48;;;;;;;7.20;3.73;;;;;;;;;;5102356;28;20452;-78
2023/06/22 16:57:17;;;;;;;5.37;3.90;;;;;;;;;;5103951;28;20435;-76
2023/06/22 16:59:44;;;;;;;10.90;4.30;;;;;;;;;;5102770;28;20551;-77
2023/06/22 17:02:17;;;;;;;9.13;4.20;;;;;;;;;;5102117;28;20483;-77
2023/06/22 17:04:47;;;;;;;6.00;4.27;;;;;;;;;;5103271;28;20755;-76
2023/06/22 17:07:16;;;;;;;7.97;4.70;;;;;;;;;;5101037;28;20447;-77
2023/06/22 17:09:48;;;;;;;4.47;3.53;;;;;;;;;;5101456;28;20452;-77
2023/06/22 17:12:18;;;;;;;7.07;4.83;;;;;;;;;;5101112;28;20451;-78
2023/06/22 17:14:47;;;;;;;5.70;3.63;;;;;;;;;;5100307;28;20463;-78
2023/06/22 17:17:18;;;;;;;9.13;4.90;;;;;;;;;;5100007;28;20444;-76
2023/06/22 17:19:48;;;;;;;7.87;5.10;;;;;;;;;;5100687;28;20452;-76
2023/06/22 17:22:16;;;;;;;10.80;4.20;;;;;;;;;;5100039;28;20484;-79
2023/06/22 17:24:45;;;;;;;6.90;4.30;;;;;;;;;;5099705;28;20436;-76
2023/06/22 17:27:16;;;;;;;8.00;4.53;;;;;;;;;;5100028;28;20444;-78
2023/06/22 17:29:44;;;;;;;6.47;3.93;;;;;;;;;;5100575;28;20451;-77
2023/06/22 17:32:14;;;;;;;10.23;4.00;;;;;;;;;;5102047;28;20807;-77
2023/06/22 17:34:42;;;;;;;8.33;4.67;;;;;;;;;;5104611;28;20451;-77